createdAt,value
2022-10-12T00:02:10.736Z,83.26
2022-10-12T00:04:37.146Z,84.00
2022-10-12T00:07:03.551Z,84.02
2022-10-12T00:09:29.915Z,83.91
2022-10-12T00:11:56.290Z,83.61
2022-10-12T00:14:22.662Z,83.69
2022-10-12T00:16:49.078Z,83.78
2022-10-12T00:19:15.575Z,83.59
2022-10-12T00:21:42.169Z,83.43
2022-10-12T00:24:09.160Z,83.71
2022-10-12T00:26:35.638Z,84.48
2022-10-12T00:29:04.063Z,84.45
2022-10-12T00:31:31.206Z,85.08
2022-10-12T00:34:01.270Z,85.23
2022-10-12T00:36:32.266Z,84.56
2022-10-12T00:38:59.868Z,84.47
2022-10-12T00:41:29.264Z,85.68
2022-10-12T00:43:58.463Z,84.87
2022-10-12T00:46:39.240Z,84.45
2022-10-12T00:49:17.545Z,85.01
2022-10-12T00:51:48.661Z,84.78
2022-10-12T00:54:23.606Z,85.24
2022-10-12T00:56:53.280Z,84.75
2022-10-12T00:59:24.159Z,84.70
2022-10-12T01:01:50.928Z,85.33
2022-10-12T01:04:17.601Z,84.78
2022-10-12T01:06:44.151Z,85.21
2022-10-12T01:09:10.520Z,84.74
2022-10-12T01:11:36.897Z,85.35
2022-10-12T01:14:03.562Z,84.36
2022-10-12T01:16:46.563Z,84.69
2022-10-12T01:19:46.506Z,84.20
2022-10-12T01:22:19.220Z,84.22
2022-10-12T01:25:16.226Z,85.03
2022-10-12T01:27:49.961Z,84.54
2022-10-12T01:30:25.702Z,84.83
2022-10-12T01:33:05.730Z,84.74
2022-10-12T01:35:44.011Z,84.72
2022-10-12T01:38:34.995Z,84.43
2022-10-12T01:41:10.625Z,84.53
2022-10-12T01:43:40.064Z,85.32
2022-10-12T01:46:12.530Z,84.90
2022-10-12T01:48:40.401Z,85.90
2022-10-12T01:51:09.086Z,85.72
2022-10-12T01:54:01.333Z,85.47
2022-10-12T01:56:34.937Z,84.71
2022-10-12T01:59:14.380Z,84.34
2022-10-12T02:01:50.073Z,84.68
2022-10-12T02:04:51.857Z,84.29
2022-10-12T02:07:38.036Z,84.94
2022-10-12T02:10:10.641Z,84.41
2022-10-12T02:12:40.261Z,84.64
2022-10-12T02:15:10.082Z,84.49
2022-10-12T02:17:38.480Z,85.27
2022-10-12T02:20:06.148Z,86.24
2022-10-12T02:22:36.683Z,86.62
2022-10-12T02:25:08.918Z,87.01
2022-10-12T02:27:37.125Z,87.33
2022-10-12T02:30:04.533Z,88.14
2022-10-12T02:32:50.613Z,88.17
2022-10-12T02:35:31.305Z,88.26
2022-10-12T02:38:11.734Z,88.87
2022-10-12T02:40:54.666Z,89.21
2022-10-12T02:43:38.845Z,88.71
2022-10-12T02:46:08.894Z,90.69
2022-10-12T02:48:38.802Z,91.54
2022-10-12T02:51:07.107Z,91.84
2022-10-12T02:53:33.843Z,92.22
2022-10-12T02:56:06.190Z,92.54
2022-10-12T02:58:32.709Z,92.67
2022-10-12T03:00:59.171Z,93.76
2022-10-12T03:03:25.610Z,94.94
2022-10-12T03:05:52.063Z,95.91
2022-10-12T03:08:18.450Z,96.97
2022-10-12T03:10:44.873Z,98.56
2022-10-12T03:13:11.367Z,99.30
2022-10-12T03:15:37.962Z,99.11
2022-10-12T03:18:04.518Z,98.73
2022-10-12T03:20:30.877Z,99.37
2022-10-12T03:22:57.248Z,98.91
2022-10-12T03:25:23.865Z,99.30
2022-10-12T03:27:50.286Z,99.44
2022-10-12T03:30:16.774Z,99.33
2022-10-12T03:32:43.365Z,100.00
2022-10-12T03:35:10.012Z,100.00
2022-10-12T03:37:36.778Z,100.00
2022-10-12T03:40:03.518Z,100.00
2022-10-12T03:42:29.899Z,100.00
2022-10-12T03:44:56.300Z,99.39
2022-10-12T03:47:22.684Z,98.92
2022-10-12T03:49:49.038Z,99.79
2022-10-12T03:52:15.576Z,98.08
2022-10-12T03:54:41.942Z,98.37
2022-10-12T03:57:08.316Z,98.40
2022-10-12T03:59:34.678Z,97.58
2022-10-12T04:02:01.065Z,99.24
2022-10-12T04:04:27.497Z,99.81
2022-10-12T04:06:53.873Z,99.54
2022-10-12T04:09:20.260Z,97.96
2022-10-12T04:11:46.626Z,96.89
2022-10-12T04:14:12.985Z,97.05
2022-10-12T04:16:39.439Z,96.49
2022-10-12T04:19:05.889Z,96.73
2022-10-12T04:21:32.360Z,97.15
2022-10-12T04:23:58.740Z,97.17
2022-10-12T04:26:25.134Z,95.90
2022-10-12T04:28:51.575Z,95.12
2022-10-12T04:31:18.321Z,94.60
2022-10-12T04:33:44.752Z,93.67
2022-10-12T04:36:11.133Z,93.58
2022-10-12T04:38:37.648Z,93.33
2022-10-12T04:41:04.332Z,93.33
2022-10-12T04:43:30.843Z,93.25
2022-10-12T04:45:58.889Z,92.89
2022-10-12T04:48:26.193Z,93.26
2022-10-12T04:50:53.020Z,93.85
2022-10-12T04:53:19.600Z,93.89
2022-10-12T04:55:46.055Z,93.45
2022-10-12T04:58:12.463Z,93.09
2022-10-12T05:00:38.882Z,92.98
2022-10-12T05:03:05.724Z,92.66
2022-10-12T05:05:32.198Z,93.25
2022-10-12T05:07:58.652Z,93.61
2022-10-12T05:10:25.054Z,93.58
2022-10-12T05:12:51.556Z,93.82
2022-10-12T05:15:18.095Z,93.72
2022-10-12T05:17:44.457Z,93.36
2022-10-12T05:20:11.677Z,94.15
2022-10-12T05:22:38.138Z,94.41
2022-10-12T05:25:05.946Z,94.61
2022-10-12T05:27:32.351Z,96.32
2022-10-12T05:29:58.779Z,96.35
2022-10-12T05:32:25.195Z,97.12
2022-10-12T05:34:51.651Z,96.93
2022-10-12T05:37:18.044Z,96.75
2022-10-12T05:39:44.414Z,96.51
2022-10-12T05:42:10.778Z,97.20
2022-10-12T05:44:37.197Z,97.87
2022-10-12T05:47:03.732Z,97.00
2022-10-12T05:49:30.933Z,96.56
2022-10-12T05:51:57.326Z,96.55
2022-10-12T05:54:23.712Z,96.16
2022-10-12T05:56:50.140Z,96.37
2022-10-12T05:59:16.530Z,97.12
2022-10-12T06:01:43.000Z,97.57
2022-10-12T06:04:09.484Z,98.84
2022-10-12T06:06:35.851Z,98.75
2022-10-12T06:09:02.393Z,97.53
2022-10-12T06:11:30.423Z,96.99
2022-10-12T06:13:59.135Z,97.45
2022-10-12T06:16:25.563Z,98.12
2022-10-12T06:18:51.994Z,97.97
2022-10-12T06:21:32.911Z,98.73
2022-10-12T06:23:59.646Z,100.00
2022-10-12T06:26:26.013Z,99.00
2022-10-12T06:28:52.468Z,97.80
2022-10-12T06:31:18.991Z,98.05
2022-10-12T06:33:45.393Z,98.33
2022-10-12T06:36:11.805Z,98.60
2022-10-12T06:38:38.182Z,98.67
2022-10-12T06:41:04.787Z,99.19
2022-10-12T06:43:31.204Z,98.83
2022-10-12T06:46:01.780Z,100.00
2022-10-12T06:48:29.028Z,100.00
2022-10-12T06:50:55.703Z,100.00
2022-10-12T06:53:22.496Z,100.00
2022-10-12T06:55:49.305Z,100.00
2022-10-12T06:58:15.733Z,100.00
2022-10-12T07:00:42.270Z,100.00
2022-10-12T07:03:12.705Z,100.00
2022-10-12T07:05:39.221Z,100.00
2022-10-12T07:08:05.642Z,100.00
2022-10-12T07:10:32.026Z,100.00
2022-10-12T07:12:58.824Z,100.00
2022-10-12T07:15:25.298Z,100.00
2022-10-12T07:17:51.688Z,100.00
2022-10-12T07:20:18.042Z,100.00
2022-10-12T07:22:44.760Z,100.00
2022-10-12T07:25:11.346Z,100.00
2022-10-12T07:27:38.025Z,100.00
2022-10-12T07:30:05.136Z,100.00
2022-10-12T07:32:31.502Z,100.00
2022-10-12T07:34:57.900Z,100.00
2022-10-12T07:37:24.349Z,100.00
2022-10-12T07:39:50.805Z,100.00
2022-10-12T07:42:19.527Z,100.00
2022-10-12T07:44:46.279Z,100.00
2022-10-12T07:47:12.631Z,100.00
2022-10-12T07:49:39.014Z,100.00
2022-10-12T07:52:05.368Z,100.00
2022-10-12T07:54:32.716Z,100.00
2022-10-12T07:56:59.155Z,100.00
2022-10-12T07:59:25.606Z,100.00
2022-10-12T08:01:52.039Z,100.00
2022-10-12T08:04:18.475Z,100.00
2022-10-12T08:06:44.964Z,100.00
2022-10-12T08:09:11.351Z,100.00
2022-10-12T08:11:40.028Z,100.00
2022-10-12T08:14:07.502Z,100.00
2022-10-12T08:16:33.936Z,100.00
2022-10-12T08:19:00.421Z,100.00
2022-10-12T08:21:26.834Z,100.00
2022-10-12T08:23:53.266Z,100.00
2022-10-12T08:26:19.640Z,100.00
2022-10-12T08:28:46.362Z,100.00
2022-10-12T08:31:17.590Z,100.00
2022-10-12T08:33:44.318Z,100.00
2022-10-12T08:36:11.178Z,100.00
2022-10-12T08:38:43.204Z,100.00
2022-10-12T08:41:26.178Z,100.00
2022-10-12T08:44:04.480Z,100.00
2022-10-12T08:46:31.180Z,100.00
2022-10-12T08:49:12.444Z,100.00
2022-10-12T08:51:49.156Z,100.00
2022-10-12T08:54:18.982Z,100.00
2022-10-12T08:56:45.531Z,100.00
2022-10-12T08:59:17.544Z,100.00
2022-10-12T09:02:14.656Z,100.00
2022-10-12T09:05:01.406Z,100.00
2022-10-12T09:07:47.830Z,100.00
2022-10-12T09:10:26.584Z,100.00
2022-10-12T09:13:14.057Z,100.00
2022-10-12T09:16:06.228Z,100.00
2022-10-12T09:18:46.214Z,100.00
2022-10-12T09:21:21.534Z,100.00
2022-10-12T09:23:49.438Z,100.00
2022-10-12T09:26:18.914Z,100.00
2022-10-12T09:28:54.944Z,100.00
2022-10-12T09:31:33.411Z,100.00
2022-10-12T09:34:03.057Z,100.00
2022-10-12T09:36:34.297Z,100.00
2022-10-12T09:39:02.604Z,100.00
2022-10-12T09:41:42.006Z,100.00
2022-10-12T09:44:16.468Z,100.00
2022-10-12T09:46:49.369Z,99.39
2022-10-12T09:49:15.818Z,98.23
2022-10-12T09:51:42.333Z,98.23
2022-10-12T09:54:18.127Z,97.84
2022-10-12T09:56:51.135Z,97.33
2022-10-12T09:59:25.025Z,97.34
2022-10-12T10:02:04.409Z,96.34
2022-10-12T10:04:31.417Z,95.27
2022-10-12T10:07:20.554Z,96.38
2022-10-12T10:09:48.870Z,96.03
2022-10-12T10:12:50.462Z,94.42
2022-10-12T10:15:21.697Z,93.38
2022-10-12T10:17:53.666Z,93.74
2022-10-12T10:20:28.763Z,92.27
2022-10-12T10:22:56.003Z,92.22
2022-10-12T10:25:24.329Z,93.01
2022-10-12T10:28:10.864Z,92.21
2022-10-12T10:30:40.768Z,92.12
2022-10-12T10:33:17.400Z,91.72
2022-10-12T10:36:22.178Z,90.37
2022-10-12T10:39:07.148Z,89.33
2022-10-12T10:41:39.570Z,88.80
2022-10-12T10:44:26.229Z,87.80
2022-10-12T10:46:55.200Z,87.04
2022-10-12T10:49:33.618Z,87.11
2022-10-12T10:52:02.093Z,86.32
2022-10-12T10:54:31.131Z,86.40
2022-10-12T10:57:25.259Z,86.05
2022-10-12T11:00:02.258Z,86.14
2022-10-12T11:02:58.426Z,86.13
2022-10-12T11:05:37.494Z,85.84
2022-10-12T11:08:16.474Z,86.37
2022-10-12T11:10:51.301Z,85.57
2022-10-12T11:13:23.267Z,86.55
2022-10-12T11:16:05.093Z,84.45
2022-10-12T11:18:47.013Z,85.33
2022-10-12T11:21:26.551Z,87.46
2022-10-12T11:24:02.233Z,87.04
2022-10-12T11:26:38.363Z,88.76
2022-10-12T11:29:06.066Z,86.79
2022-10-12T11:31:42.872Z,86.33
2022-10-12T11:34:16.882Z,88.35
2022-10-12T11:37:07.565Z,88.58
2022-10-12T11:39:43.213Z,89.88
2022-10-12T11:42:22.957Z,91.05
2022-10-12T11:44:50.011Z,91.66
2022-10-12T11:47:43.969Z,93.01
2022-10-12T11:50:33.039Z,94.24
2022-10-12T11:53:02.222Z,94.87
2022-10-12T11:55:47.293Z,95.83
2022-10-12T11:58:42.355Z,95.95
2022-10-12T12:01:37.416Z,96.28
2022-10-12T12:04:39.771Z,96.45
2022-10-12T12:07:03.968Z,97.34
2022-10-12T12:09:41.044Z,98.22
2022-10-12T12:12:11.638Z,98.73
2022-10-12T12:14:45.874Z,98.63
2022-10-12T12:17:18.114Z,99.39
2022-10-12T12:19:49.609Z,100.00
2022-10-12T12:22:23.574Z,100.00
2022-10-12T12:24:59.663Z,99.68
2022-10-12T12:27:33.874Z,99.99
2022-10-12T12:30:02.926Z,99.92
2022-10-12T12:32:44.523Z,100.00
2022-10-12T12:35:33.100Z,98.43
2022-10-12T12:38:03.530Z,99.65
2022-10-12T12:40:30.451Z,99.35
2022-10-12T12:43:19.689Z,100.00
2022-10-12T12:46:08.047Z,99.75
2022-10-12T12:48:43.688Z,98.37
2022-10-12T12:51:14.938Z,98.66
2022-10-12T12:53:50.440Z,97.98
2022-10-12T12:56:34.329Z,98.77
2022-10-12T12:59:25.104Z,98.82
2022-10-12T13:02:19.441Z,100.00
2022-10-12T13:05:04.892Z,100.00
2022-10-12T13:08:13.462Z,100.00
2022-10-12T13:11:01.437Z,100.00
2022-10-12T13:14:14.513Z,100.00
2022-10-12T13:17:32.346Z,100.00
2022-10-12T13:19:56.030Z,100.00
2022-10-12T13:22:29.369Z,100.00
2022-10-12T13:25:06.649Z,100.00
2022-10-12T13:27:40.898Z,100.00
2022-10-12T13:30:22.814Z,100.00
2022-10-12T13:33:10.418Z,100.00
2022-10-12T13:35:43.347Z,100.00
2022-10-12T13:38:15.768Z,100.00
2022-10-12T13:40:51.473Z,100.00
2022-10-12T13:43:27.180Z,100.00
2022-10-12T13:45:53.706Z,100.00
2022-10-12T13:48:46.470Z,100.00
2022-10-12T13:51:22.673Z,100.00
2022-10-12T13:53:49.116Z,100.00
2022-10-12T13:56:22.968Z,100.00
2022-10-12T13:58:53.664Z,100.00
2022-10-12T14:01:20.171Z,100.00
2022-10-12T14:03:46.751Z,100.00
2022-10-12T14:06:29.904Z,100.00
2022-10-12T14:09:01.205Z,100.00
2022-10-12T14:11:28.456Z,100.00
2022-10-12T14:13:55.814Z,100.00
2022-10-12T14:16:22.232Z,100.00
2022-10-12T14:18:50.645Z,100.00
2022-10-12T14:21:28.031Z,100.00
2022-10-12T14:23:59.837Z,100.00
2022-10-12T14:26:37.607Z,100.00
2022-10-12T14:29:33.881Z,100.00
2022-10-12T14:32:03.641Z,100.00
2022-10-12T14:34:34.218Z,100.00
2022-10-12T14:37:16.884Z,100.00
2022-10-12T14:39:45.893Z,100.00
2022-10-12T14:42:27.062Z,100.00
2022-10-12T14:44:53.759Z,100.00
2022-10-12T14:47:22.997Z,100.00
2022-10-12T14:49:51.484Z,100.00
2022-10-12T14:52:27.654Z,100.00
2022-10-12T14:57:30.551Z,100.00
2022-10-12T14:59:57.696Z,100.00
2022-10-12T15:02:30.332Z,100.00
2022-10-12T15:04:57.978Z,100.00
2022-10-12T15:07:31.974Z,100.00
2022-10-12T15:09:58.957Z,100.00
2022-10-12T15:12:26.598Z,100.00
2022-10-12T15:14:55.869Z,100.00
2022-10-12T15:17:22.232Z,100.00
2022-10-12T15:19:50.091Z,100.00
2022-10-12T15:22:18.395Z,100.00
2022-10-12T15:24:45.499Z,100.00
2022-10-12T15:27:12.240Z,100.00
2022-10-12T15:29:39.348Z,100.00
2022-10-12T15:32:06.890Z,100.00
2022-10-12T15:34:33.382Z,100.00
2022-10-12T15:36:59.790Z,100.00
2022-10-12T15:39:26.331Z,100.00
2022-10-12T15:41:52.690Z,100.00
2022-10-12T15:44:19.085Z,100.00
2022-10-12T15:46:50.335Z,100.00
2022-10-12T15:49:19.711Z,100.00
2022-10-12T15:51:48.727Z,100.00
2022-10-12T15:54:15.188Z,100.00
2022-10-12T15:56:41.664Z,100.00
2022-10-12T15:59:08.087Z,100.00
2022-10-12T16:01:36.136Z,100.00
2022-10-12T16:04:04.714Z,100.00
2022-10-12T16:06:31.263Z,100.00
2022-10-12T16:08:58.704Z,100.00
2022-10-12T16:11:25.096Z,100.00
2022-10-12T16:13:56.538Z,100.00
2022-10-12T16:16:23.571Z,100.00
2022-10-12T16:18:51.376Z,100.00
2022-10-12T16:21:17.766Z,100.00
2022-10-12T16:23:44.209Z,100.00
2022-10-12T16:26:13.482Z,100.00
2022-10-12T16:28:40.003Z,100.00
2022-10-12T16:31:12.259Z,100.00
2022-10-12T16:33:39.267Z,100.00
2022-10-12T16:36:11.158Z,100.00
2022-10-12T16:38:37.559Z,100.00
2022-10-12T16:41:15.367Z,100.00
2022-10-12T16:43:42.714Z,100.00
2022-10-12T16:46:10.219Z,100.00
2022-10-12T16:48:36.858Z,100.00
2022-10-12T16:51:08.286Z,100.00
2022-10-12T16:53:34.938Z,100.00
2022-10-12T16:56:02.216Z,100.00
2022-10-12T16:58:28.607Z,100.00
2022-10-12T17:00:55.422Z,100.00
2022-10-12T17:03:21.848Z,100.00
2022-10-12T17:05:48.197Z,100.00
2022-10-12T17:08:15.760Z,100.00
2022-10-12T17:10:43.920Z,100.00
2022-10-12T17:13:10.544Z,100.00
2022-10-12T17:15:41.533Z,100.00
2022-10-12T17:18:08.710Z,100.00
2022-10-12T17:20:36.052Z,100.00
2022-10-12T17:23:03.076Z,100.00
2022-10-12T17:25:29.456Z,100.00
2022-10-12T17:27:55.870Z,100.00
2022-10-12T17:30:22.287Z,100.00
2022-10-12T17:32:48.651Z,100.00
2022-10-12T17:35:15.141Z,100.00
2022-10-12T17:37:41.509Z,100.00
2022-10-12T17:40:10.534Z,100.00
2022-10-12T17:42:36.995Z,100.00
2022-10-12T17:45:03.983Z,100.00
2022-10-12T17:47:30.410Z,100.00
2022-10-12T17:49:56.808Z,100.00
2022-10-12T17:52:23.229Z,100.00
2022-10-12T17:54:49.610Z,100.00
2022-10-12T17:57:16.448Z,100.00
2022-10-12T17:59:43.054Z,100.00
2022-10-12T18:02:09.978Z,100.00
2022-10-12T18:04:36.616Z,100.00
2022-10-12T18:07:03.154Z,100.00
2022-10-12T18:09:30.536Z,100.00
2022-10-12T18:11:56.891Z,100.00
2022-10-12T18:14:23.298Z,100.00
2022-10-12T18:16:49.671Z,100.00
2022-10-12T18:19:16.105Z,100.00
2022-10-12T18:21:42.516Z,100.00
2022-10-12T18:24:15.990Z,100.00
2022-10-12T18:26:45.548Z,100.00
2022-10-12T18:29:16.373Z,100.00
2022-10-12T18:31:42.749Z,100.00
2022-10-12T18:34:09.215Z,100.00
2022-10-12T18:36:35.745Z,100.00
2022-10-12T18:39:03.839Z,100.00
2022-10-12T18:41:31.164Z,100.00
2022-10-12T18:43:58.789Z,100.00
2022-10-12T18:46:27.507Z,100.00
2022-10-12T18:48:54.136Z,100.00
2022-10-12T18:51:24.898Z,100.00
2022-10-12T18:53:51.461Z,100.00
2022-10-12T18:56:18.767Z,100.00
2022-10-12T18:58:45.257Z,100.00
2022-10-12T19:01:14.954Z,100.00
2022-10-12T19:03:41.380Z,100.00
2022-10-12T19:06:16.520Z,100.00
2022-10-12T19:08:43.513Z,100.00
2022-10-12T19:11:11.043Z,100.00
2022-10-12T19:13:38.598Z,100.00
2022-10-12T19:16:12.305Z,100.00
2022-10-12T19:18:39.910Z,100.00
2022-10-12T19:21:09.594Z,100.00
2022-10-12T19:23:36.269Z,100.00
2022-10-12T19:26:08.338Z,100.00
2022-10-12T19:28:35.440Z,100.00
2022-10-12T19:31:07.350Z,100.00
2022-10-12T19:33:33.843Z,100.00
2022-10-12T19:36:03.678Z,100.00
2022-10-12T19:38:30.129Z,100.00
2022-10-12T19:40:56.638Z,100.00
2022-10-12T19:43:23.186Z,100.00
2022-10-12T19:45:50.796Z,100.00
2022-10-12T19:48:17.737Z,100.00
2022-10-12T19:50:44.846Z,100.00
2022-10-12T19:53:11.331Z,100.00
2022-10-12T19:55:40.399Z,100.00
2022-10-12T19:58:07.489Z,100.00
2022-10-12T20:00:37.276Z,100.00
2022-10-12T20:03:04.656Z,100.00
2022-10-12T20:05:31.086Z,100.00
2022-10-12T20:07:58.154Z,100.00
2022-10-12T20:10:24.658Z,100.00
2022-10-12T20:12:51.128Z,100.00
2022-10-12T20:15:17.608Z,100.00
2022-10-12T20:17:43.974Z,100.00
2022-10-12T20:20:10.719Z,100.00
2022-10-12T20:22:37.101Z,100.00
2022-10-12T20:25:09.327Z,100.00
2022-10-12T20:27:36.573Z,100.00
2022-10-12T20:30:04.254Z,100.00
2022-10-12T20:32:30.686Z,100.00
2022-10-12T20:34:57.125Z,100.00
2022-10-12T20:37:23.597Z,100.00
2022-10-12T20:39:50.758Z,100.00
2022-10-12T20:42:21.540Z,100.00
2022-10-12T20:44:48.498Z,100.00
2022-10-12T20:47:14.929Z,100.00
2022-10-12T20:49:41.880Z,100.00
2022-10-12T20:52:08.352Z,100.00
2022-10-12T20:54:35.939Z,100.00
2022-10-12T20:57:05.269Z,100.00
2022-10-12T20:59:34.292Z,100.00
2022-10-12T21:02:00.696Z,100.00
2022-10-12T21:04:28.217Z,100.00
2022-10-12T21:06:54.646Z,100.00
2022-10-12T21:09:21.101Z,100.00
2022-10-12T21:11:47.492Z,100.00
2022-10-12T21:14:14.011Z,100.00
2022-10-12T21:16:40.525Z,100.00
2022-10-12T21:19:06.898Z,100.00
2022-10-12T21:21:33.323Z,100.00
2022-10-12T21:24:01.109Z,100.00
2022-10-12T21:26:29.692Z,100.00
2022-10-12T21:28:56.149Z,100.00
2022-10-12T21:31:22.634Z,100.00
2022-10-12T21:33:49.030Z,100.00
2022-10-12T21:36:19.909Z,100.00
2022-10-12T21:38:47.027Z,100.00
2022-10-12T21:41:19.028Z,100.00
2022-10-12T21:43:45.678Z,100.00
2022-10-12T21:46:15.747Z,100.00
2022-10-12T21:48:42.459Z,100.00
2022-10-12T21:51:09.337Z,100.00
2022-10-12T21:53:37.036Z,100.00
2022-10-12T21:56:14.296Z,100.00
2022-10-12T21:58:41.172Z,100.00
2022-10-12T22:01:13.520Z,100.00
2022-10-12T22:03:40.812Z,100.00
2022-10-12T22:06:11.308Z,100.00
2022-10-12T22:08:37.681Z,100.00
2022-10-12T22:11:09.877Z,100.00
2022-10-12T22:13:37.212Z,100.00
2022-10-12T22:16:05.783Z,100.00
2022-10-12T22:18:32.940Z,100.00
2022-10-12T22:21:14.042Z,100.00
2022-10-12T22:23:40.593Z,100.00
2022-10-12T22:26:11.328Z,100.00
2022-10-12T22:28:37.816Z,100.00
2022-10-12T22:31:09.513Z,100.00
2022-10-12T22:33:37.068Z,100.00
2022-10-12T22:36:05.109Z,100.00
2022-10-12T22:38:32.902Z,100.00
2022-10-12T22:41:05.592Z,100.00
2022-10-12T22:43:33.446Z,100.00
2022-10-12T22:46:00.433Z,100.00
2022-10-12T22:48:27.641Z,100.00
2022-10-12T22:50:54.321Z,100.00
2022-10-12T22:53:22.267Z,100.00
2022-10-12T22:55:48.950Z,100.00
2022-10-12T22:58:15.608Z,100.00
2022-10-12T23:00:42.271Z,100.00
2022-10-12T23:03:08.702Z,100.00
2022-10-12T23:05:35.121Z,100.00
2022-10-12T23:08:01.773Z,100.00
2022-10-12T23:10:28.130Z,100.00
2022-10-12T23:12:54.512Z,100.00
2022-10-12T23:15:20.890Z,100.00
2022-10-12T23:17:48.169Z,100.00
2022-10-12T23:20:14.557Z,100.00
2022-10-12T23:22:41.868Z,100.00
2022-10-12T23:25:08.315Z,100.00
2022-10-12T23:27:34.722Z,100.00
2022-10-12T23:30:01.100Z,100.00
2022-10-12T23:32:30.380Z,100.00
2022-10-12T23:34:56.771Z,100.00
2022-10-12T23:37:23.175Z,100.00
2022-10-12T23:39:50.796Z,100.00
2022-10-12T23:42:17.530Z,100.00
2022-10-12T23:44:44.108Z,100.00
2022-10-12T23:47:10.516Z,100.00
2022-10-12T23:49:36.917Z,100.00
2022-10-12T23:52:05.912Z,100.00
2022-10-12T23:54:32.324Z,100.00
2022-10-12T23:56:58.690Z,100.00
2022-10-12T23:59:25.088Z,100.00
